createdAt,value
2016-05-26T00:00:06.309Z,989.99
2016-05-26T00:01:06.311Z,990.05
2016-05-26T00:02:06.314Z,990.02
2016-05-26T00:03:06.316Z,990.01
2016-05-26T00:04:06.320Z,990.02
2016-05-26T00:05:06.322Z,990.02
2016-05-26T00:06:06.325Z,990.02
2016-05-26T00:07:06.327Z,990.01
2016-05-26T00:08:06.330Z,990.02
2016-05-26T00:09:06.317Z,990.01
2016-05-26T00:10:06.319Z,990.02
2016-05-26T00:11:06.322Z,990.02
2016-05-26T00:12:06.324Z,990.02
2016-05-26T00:13:06.327Z,989.95
2016-05-26T00:14:06.331Z,989.99
2016-05-26T00:15:06.349Z,990.01
2016-05-26T00:16:06.336Z,990.02
2016-05-26T00:17:06.338Z,990.04
2016-05-26T00:18:06.325Z,990.03
2016-05-26T00:19:06.328Z,989.98
2016-05-26T00:20:06.331Z,990.02
2016-05-26T00:21:06.333Z,990.05
2016-05-26T00:22:06.336Z,990
2016-05-26T00:23:06.339Z,989.97
2016-05-26T00:24:06.326Z,989.97
2016-05-26T00:25:06.329Z,990
2016-05-26T00:26:06.331Z,989.95
2016-05-26T00:27:06.334Z,990
2016-05-26T00:28:06.337Z,989.95
2016-05-26T00:29:06.339Z,989.99
2016-05-26T00:30:06.326Z,989.96
2016-05-26T00:31:06.345Z,989.98
2016-05-26T00:32:06.347Z,989.99
2016-05-26T00:33:06.334Z,989.99
2016-05-26T00:34:06.337Z,989.97
2016-05-26T00:35:06.340Z,990
2016-05-26T00:36:06.343Z,990.03
2016-05-26T00:37:06.330Z,990.02
2016-05-26T00:38:06.332Z,990.03
2016-05-26T00:39:06.335Z,990.02
2016-05-26T00:40:06.337Z,989.99
2016-05-26T00:41:06.340Z,990
2016-05-26T00:42:06.359Z,990
2016-05-26T00:43:06.345Z,990.04
2016-05-26T00:44:06.348Z,989.94
2016-05-26T00:45:06.335Z,989.96
2016-05-26T00:46:06.338Z,989.98
2016-05-26T00:47:06.341Z,989.95
2016-05-26T00:48:06.344Z,989.95
2016-05-26T00:49:06.346Z,989.98
2016-05-26T00:50:06.333Z,990.02
2016-05-26T00:51:06.352Z,990
2016-05-26T00:52:06.338Z,989.98
2016-05-26T00:53:06.341Z,989.98
2016-05-26T00:54:06.344Z,990
2016-05-26T00:55:06.346Z,989.96
2016-05-26T00:56:06.349Z,989.95
2016-05-26T00:57:06.352Z,989.95
2016-05-26T00:58:06.355Z,989.95
2016-05-26T00:59:06.342Z,989.93
2016-05-26T01:00:06.345Z,989.91
2016-05-26T01:01:06.348Z,989.92
2016-05-26T01:02:06.350Z,989.89
2016-05-26T01:03:06.353Z,989.9
2016-05-26T01:04:06.356Z,989.92
2016-05-26T01:05:06.343Z,989.91
2016-05-26T01:06:06.345Z,989.92
2016-05-26T01:07:06.348Z,989.92
2016-05-26T01:08:06.350Z,989.91
2016-05-26T01:09:06.353Z,989.88
2016-05-26T01:10:06.356Z,989.9
2016-05-26T01:11:06.342Z,989.88
2016-05-26T01:12:06.346Z,989.89
2016-05-26T01:13:06.348Z,989.9
2016-05-26T01:14:06.350Z,989.87
2016-05-26T01:15:06.353Z,989.92
2016-05-26T01:16:06.356Z,989.93
2016-05-26T01:17:06.359Z,989.92
2016-05-26T01:18:06.611Z,989.88
2016-05-26T01:19:06.349Z,989.89
2016-05-26T01:20:06.352Z,989.9
2016-05-26T01:21:06.355Z,989.9
2016-05-26T01:22:06.357Z,989.92
2016-05-26T01:23:06.359Z,989.91
2016-05-26T01:24:06.347Z,989.89
2016-05-26T01:25:06.349Z,989.91
2016-05-26T01:26:06.352Z,989.89
2016-05-26T01:27:06.354Z,989.88
2016-05-26T01:28:06.357Z,989.88
2016-05-26T01:29:06.360Z,989.93
2016-05-26T01:30:06.346Z,989.92
2016-05-26T01:31:06.350Z,989.96
2016-05-26T01:32:06.352Z,989.98
2016-05-26T01:33:06.949Z,989.98
2016-05-26T01:34:06.357Z,989.96
2016-05-26T01:35:06.360Z,989.98
2016-05-26T01:36:06.348Z,989.95
2016-05-26T01:37:06.351Z,989.91
2016-05-26T01:38:06.369Z,989.96
2016-05-26T01:39:06.356Z,989.94
2016-05-26T01:40:06.359Z,989.91
2016-05-26T01:41:06.361Z,989.95
2016-05-26T01:42:06.348Z,989.97
2016-05-26T01:43:06.351Z,990.03
2016-05-26T01:44:06.353Z,989.99
2016-05-26T01:45:06.372Z,990.01
2016-05-26T01:46:06.358Z,989.99
2016-05-26T01:47:06.361Z,990
2016-05-26T01:48:06.505Z,990.01
2016-05-26T01:49:06.351Z,990.01
2016-05-26T01:50:06.354Z,989.99
2016-05-26T01:51:06.372Z,990.01
2016-05-26T01:52:06.360Z,989.98
2016-05-26T01:53:06.347Z,990.04
2016-05-26T01:54:06.365Z,989.98
2016-05-26T01:55:06.352Z,989.99
2016-05-26T01:56:06.355Z,990
2016-05-26T01:57:06.358Z,990
2016-05-26T01:58:06.360Z,990
2016-05-26T01:59:06.363Z,990
2016-05-26T02:00:06.365Z,990.02
2016-05-26T02:01:06.368Z,990.03
2016-05-26T02:02:06.355Z,990.03
2016-05-26T02:03:06.357Z,990.03
2016-05-26T02:04:06.360Z,990.01
2016-05-26T02:05:06.362Z,990.02
2016-05-26T02:06:06.366Z,990.05
2016-05-26T02:07:06.368Z,990.03
2016-05-26T02:08:06.356Z,990.02
2016-05-26T02:09:06.358Z,990.02
2016-05-26T02:10:06.361Z,990.01
2016-05-26T02:11:06.348Z,989.99
2016-05-26T02:12:06.350Z,989.98
2016-05-26T02:13:06.354Z,990.01
2016-05-26T02:14:06.356Z,990.04
2016-05-26T02:15:06.358Z,990
2016-05-26T02:16:06.361Z,990
2016-05-26T02:17:06.348Z,989.96
2016-05-26T02:18:06.351Z,989.99
2016-05-26T02:19:06.354Z,989.97
2016-05-26T02:20:06.356Z,989.97
2016-05-26T02:21:06.359Z,989.9
2016-05-26T02:22:06.347Z,989.89
2016-05-26T02:23:06.349Z,989.91
2016-05-26T02:24:06.352Z,989.92
2016-05-26T02:25:06.354Z,989.9
2016-05-26T02:26:06.357Z,989.89
2016-05-26T02:27:06.360Z,989.92
2016-05-26T02:28:06.346Z,989.94
2016-05-26T02:29:06.349Z,989.93
2016-05-26T02:30:06.352Z,989.92
2016-05-26T02:31:06.354Z,989.94
2016-05-26T02:32:06.357Z,989.92
2016-05-26T02:33:06.360Z,989.92
2016-05-26T02:34:06.363Z,989.95
2016-05-26T02:35:06.351Z,989.92
2016-05-26T02:36:06.353Z,989.92
2016-05-26T02:37:06.356Z,989.96
2016-05-26T02:38:06.359Z,989.94
2016-05-26T02:39:06.345Z,989.94
2016-05-26T02:40:06.348Z,989.93
2016-05-26T02:41:06.351Z,989.94
2016-05-26T02:42:06.353Z,989.96
2016-05-26T02:43:06.356Z,989.95
2016-05-26T02:44:06.343Z,989.93
2016-05-26T02:45:06.345Z,989.96
2016-05-26T02:46:06.348Z,989.92
2016-05-26T02:47:06.350Z,989.96
2016-05-26T02:48:06.353Z,989.96
2016-05-26T02:49:06.356Z,989.96
2016-05-26T02:50:06.343Z,989.92
2016-05-26T02:51:06.408Z,989.98
2016-05-26T02:52:06.349Z,989.97
2016-05-26T02:53:06.352Z,990.01
2016-05-26T02:54:06.386Z,989.96
2016-05-26T02:55:06.342Z,990.02
2016-05-26T02:56:06.343Z,989.98
2016-05-26T02:57:06.347Z,989.99
2016-05-26T02:58:06.350Z,989.99
2016-05-26T02:59:06.336Z,990.03
2016-05-26T03:00:06.339Z,990.01
2016-05-26T03:01:06.341Z,990
2016-05-26T03:02:06.344Z,990
2016-05-26T03:03:06.347Z,990.05
2016-05-26T03:04:06.365Z,990.07
2016-05-26T03:05:06.337Z,990.02
2016-05-26T03:06:06.340Z,990.05
2016-05-26T03:07:06.342Z,990.11
2016-05-26T03:08:06.346Z,990.11
2016-05-26T03:09:06.348Z,990.09
2016-05-26T03:10:06.350Z,990.11
2016-05-26T03:11:06.337Z,990.13
2016-05-26T03:12:06.340Z,990.1
2016-05-26T03:13:06.343Z,990.11
2016-05-26T03:14:06.346Z,990.09
2016-05-26T03:15:06.348Z,990.11
2016-05-26T03:16:06.336Z,990.08
2016-05-26T03:17:06.339Z,990.11
2016-05-26T03:18:06.341Z,990.11
2016-05-26T03:19:06.344Z,990.09
2016-05-26T03:20:06.346Z,990.08
2016-05-26T03:21:06.333Z,990.05
2016-05-26T03:22:06.336Z,990.09
2016-05-26T03:23:06.338Z,990.03
2016-05-26T03:24:06.341Z,990.02
2016-05-26T03:25:06.344Z,990.06
2016-05-26T03:26:06.346Z,990.05
2016-05-26T03:27:06.333Z,990.07
2016-05-26T03:28:06.336Z,990.05
2016-05-26T03:29:06.339Z,990.09
2016-05-26T03:30:06.341Z,990.05
2016-05-26T03:31:06.329Z,990.05
2016-05-26T03:32:06.332Z,990.09
2016-05-26T03:33:06.335Z,990.07
2016-05-26T03:34:06.337Z,990.05
2016-05-26T03:35:06.339Z,990.02
2016-05-26T03:36:06.327Z,990.04
2016-05-26T03:37:06.329Z,990.02
2016-05-26T03:38:06.332Z,990.01
2016-05-26T03:39:06.334Z,990.01
2016-05-26T03:40:06.337Z,990.04
2016-05-26T03:41:06.324Z,990.03
2016-05-26T03:42:06.326Z,990.07
2016-05-26T03:43:06.329Z,990.04
2016-05-26T03:44:06.332Z,989.98
2016-05-26T03:45:06.334Z,990.08
2016-05-26T03:46:06.322Z,990.06
2016-05-26T03:47:06.325Z,990.01
2016-05-26T03:48:06.750Z,990.06
2016-05-26T03:49:06.331Z,990.02
2016-05-26T03:50:06.333Z,990.07
2016-05-26T03:51:06.320Z,990.09
2016-05-26T03:52:06.322Z,990.03
2016-05-26T03:53:06.325Z,990.07
2016-05-26T03:54:06.328Z,990.1
2016-05-26T03:55:06.331Z,990.05
2016-05-26T03:56:06.333Z,990.05
2016-05-26T03:57:06.321Z,990.07
2016-05-26T03:58:06.323Z,990.08
2016-05-26T03:59:06.326Z,990.03
2016-05-26T04:00:06.329Z,990.04
2016-05-26T04:01:06.316Z,990.04
2016-05-26T04:02:06.318Z,990.05
2016-05-26T04:03:06.321Z,990.05
2016-05-26T04:04:06.324Z,990.04
2016-05-26T04:05:06.327Z,990.02
2016-05-26T04:06:06.313Z,990.09
2016-05-26T04:07:06.316Z,990.01
2016-05-26T04:08:06.319Z,990.05
2016-05-26T04:09:06.321Z,990.07
2016-05-26T04:10:06.324Z,990.11
2016-05-26T04:11:06.326Z,990.09
2016-05-26T04:12:06.329Z,990.1
2016-05-26T04:13:06.317Z,990.15
2016-05-26T04:14:06.320Z,990.13
2016-05-26T04:15:06.322Z,990.16
2016-05-26T04:16:06.325Z,990.07
2016-05-26T04:17:06.327Z,990.13
2016-05-26T04:18:06.331Z,990.18
2016-05-26T04:19:06.334Z,990.18
2016-05-26T04:20:06.335Z,990.19
2016-05-26T04:21:06.338Z,990.2
2016-05-26T04:22:06.325Z,990.22
2016-05-26T04:23:06.328Z,990.19
2016-05-26T04:24:06.331Z,990.22
2016-05-26T04:25:06.333Z,990.22
2016-05-26T04:26:06.336Z,990.23
2016-05-26T04:27:06.339Z,990.17
2016-05-26T04:28:06.341Z,990.17
2016-05-26T04:29:06.344Z,990.14
2016-05-26T04:30:06.347Z,990.14
2016-05-26T04:31:06.349Z,990.17
2016-05-26T04:32:06.352Z,990.18
2016-05-26T04:33:06.433Z,990.18
2016-05-26T04:34:06.357Z,990.15
2016-05-26T04:35:06.344Z,990.13
2016-05-26T04:36:06.346Z,990.18
2016-05-26T04:37:06.350Z,990.16
2016-05-26T04:38:06.353Z,990.2
2016-05-26T04:39:06.355Z,990.18
2016-05-26T04:40:06.358Z,990.2
2016-05-26T04:41:06.360Z,990.21
2016-05-26T04:42:06.363Z,990.16
2016-05-26T04:43:06.366Z,990.15
2016-05-26T04:44:06.384Z,990.17
2016-05-26T04:45:06.371Z,990.14
2016-05-26T04:46:06.374Z,990.11
2016-05-26T04:47:06.376Z,990.14
2016-05-26T04:48:06.379Z,990.14
2016-05-26T04:49:06.382Z,990.16
2016-05-26T04:50:06.384Z,990.19
2016-05-26T04:51:06.387Z,990.21
2016-05-26T04:52:06.390Z,990.22
2016-05-26T04:53:06.393Z,990.25
2016-05-26T04:54:06.396Z,990.27
2016-05-26T04:55:06.397Z,990.31
2016-05-26T04:56:06.401Z,990.29
2016-05-26T04:57:06.436Z,990.33
2016-05-26T04:58:06.422Z,990.33
2016-05-26T04:59:06.425Z,990.34
2016-05-26T05:00:06.427Z,990.37
2016-05-26T05:01:06.414Z,990.39
2016-05-26T05:02:06.417Z,990.36
2016-05-26T05:03:06.419Z,990.35
2016-05-26T05:04:06.422Z,990.37
2016-05-26T05:05:06.424Z,990.37
2016-05-26T05:06:06.427Z,990.33
2016-05-26T05:07:06.431Z,990.35
2016-05-26T05:08:06.433Z,990.39
2016-05-26T05:09:06.435Z,990.4
2016-05-26T05:10:06.438Z,990.41
2016-05-26T05:11:06.441Z,990.39
2016-05-26T05:12:06.444Z,990.39
2016-05-26T05:13:06.463Z,990.41
2016-05-26T05:14:06.449Z,990.41
2016-05-26T05:15:06.452Z,990.29
2016-05-26T05:16:06.455Z,990.35
2016-05-26T05:17:06.457Z,990.38
2016-05-26T05:18:06.756Z,990.4
2016-05-26T05:19:06.462Z,990.39
2016-05-26T05:20:06.465Z,990.39
2016-05-26T05:21:06.468Z,990.44
2016-05-26T05:22:06.470Z,990.41
2016-05-26T05:23:06.474Z,990.55
2016-05-26T05:24:06.476Z,990.59
2016-05-26T05:25:06.494Z,990.58
2016-05-26T05:26:06.481Z,990.63
2016-05-26T05:27:06.484Z,990.66
2016-05-26T05:28:06.487Z,990.62
2016-05-26T05:29:06.490Z,990.63
2016-05-26T05:30:06.492Z,990.57
2016-05-26T05:31:06.511Z,990.62
2016-05-26T05:32:06.498Z,990.62
2016-05-26T05:33:06.500Z,990.63
2016-05-26T05:34:06.503Z,990.61
2016-05-26T05:35:06.506Z,990.64
2016-05-26T05:36:06.524Z,990.62
2016-05-26T05:37:06.527Z,990.62
2016-05-26T05:38:06.529Z,990.64
2016-05-26T05:39:06.532Z,990.65
2016-05-26T05:40:06.535Z,990.66
2016-05-26T05:41:06.538Z,990.66
2016-05-26T05:42:06.540Z,990.67
2016-05-26T05:43:06.559Z,990.68
2016-05-26T05:44:06.561Z,990.69
2016-05-26T05:45:06.564Z,990.74
2016-05-26T05:46:06.567Z,990.72
2016-05-26T05:47:06.570Z,990.68
2016-05-26T05:48:06.588Z,990.66
2016-05-26T05:49:06.590Z,990.67
2016-05-26T05:50:06.593Z,990.64
2016-05-26T05:51:06.612Z,990.66
2016-05-26T05:52:06.614Z,990.52
2016-05-26T05:53:06.616Z,990.52
2016-05-26T05:54:06.619Z,990.54
2016-05-26T05:55:06.622Z,990.53
2016-05-26T05:56:06.625Z,990.54
2016-05-26T05:57:06.643Z,990.5
2016-05-26T05:58:06.646Z,990.55
2016-05-26T05:59:06.649Z,990.57
2016-05-26T06:00:06.651Z,990.58
2016-05-26T06:01:06.670Z,990.56
2016-05-26T06:02:06.672Z,990.56
2016-05-26T06:03:07.113Z,990.56
2016-05-26T06:04:06.678Z,990.54
2016-05-26T06:05:06.696Z,990.55
2016-05-26T06:06:06.699Z,990.56
2016-05-26T06:07:06.701Z,990.54
2016-05-26T06:08:06.704Z,990.59
2016-05-26T06:09:06.707Z,990.52
2016-05-26T06:10:06.725Z,990.52
2016-05-26T06:11:06.727Z,990.5
2016-05-26T06:12:06.730Z,990.5
2016-05-26T06:13:06.749Z,990.47
2016-05-26T06:14:06.735Z,990.46
2016-05-26T06:15:06.754Z,990.42
2016-05-26T06:16:06.803Z,990.42
2016-05-26T06:17:06.806Z,990.4
2016-05-26T06:18:07.544Z,990.39
2016-05-26T06:19:06.781Z,990.4
2016-05-26T06:20:06.831Z,990.42
2016-05-26T06:21:06.799Z,990.42
2016-05-26T06:22:06.801Z,990.43
2016-05-26T06:23:06.804Z,990.44
2016-05-26T06:24:06.823Z,990.47
2016-05-26T06:25:06.825Z,990.49
2016-05-26T06:26:06.844Z,990.5
2016-05-26T06:27:06.847Z,990.52
2016-05-26T06:28:06.849Z,990.48
2016-05-26T06:29:06.852Z,990.52
2016-05-26T06:30:06.870Z,990.58
2016-05-26T06:31:06.872Z,990.59
2016-05-26T06:32:06.891Z,990.61
2016-05-26T06:33:06.894Z,990.63
2016-05-26T06:34:06.896Z,990.6
2016-05-26T06:35:06.914Z,990.61
2016-05-26T06:36:06.916Z,990.64
2016-05-26T06:37:06.919Z,990.64
2016-05-26T06:38:06.939Z,990.64
2016-05-26T06:39:06.941Z,990.68
2016-05-26T06:40:06.960Z,990.66
2016-05-26T06:41:06.962Z,990.64
2016-05-26T06:42:06.965Z,990.68
2016-05-26T06:43:06.983Z,990.67
2016-05-26T06:44:06.986Z,990.64
2016-05-26T06:45:07.004Z,990.63
2016-05-26T06:46:07.007Z,990.64
2016-05-26T06:47:07.010Z,990.62
2016-05-26T06:48:07.028Z,990.61
2016-05-26T06:49:07.046Z,990.59
2016-05-26T06:50:07.048Z,990.64
2016-05-26T06:51:07.051Z,990.62
2016-05-26T06:52:07.054Z,990.56
2016-05-26T06:53:07.073Z,990.62
2016-05-26T06:54:07.075Z,990.59
2016-05-26T06:55:07.092Z,990.56
2016-05-26T06:56:07.096Z,990.59
2016-05-26T06:57:07.098Z,990.55
2016-05-26T06:58:07.117Z,990.56
2016-05-26T06:59:07.151Z,990.6
2016-05-26T07:00:07.138Z,990.59
2016-05-26T07:01:07.141Z,990.62
2016-05-26T07:02:07.144Z,990.57
2016-05-26T07:03:07.537Z,990.55
2016-05-26T07:04:07.164Z,990.55
2016-05-26T07:05:07.183Z,990.56
2016-05-26T07:06:07.186Z,990.55
2016-05-26T07:07:07.204Z,990.54
2016-05-26T07:08:07.207Z,990.55
2016-05-26T07:09:07.209Z,990.58
2016-05-26T07:10:07.227Z,990.59
2016-05-26T07:11:07.230Z,990.61
2016-05-26T07:12:07.232Z,990.6
2016-05-26T07:13:07.251Z,990.58
2016-05-26T07:14:07.254Z,990.57
2016-05-26T07:15:07.272Z,990.55
2016-05-26T07:16:07.274Z,990.58
2016-05-26T07:17:07.277Z,990.54
2016-05-26T07:18:07.279Z,990.58
2016-05-26T07:19:07.299Z,990.53
2016-05-26T07:20:07.318Z,990.55
2016-05-26T07:21:07.320Z,990.49
2016-05-26T07:22:07.323Z,990.52
2016-05-26T07:23:07.340Z,990.55
2016-05-26T07:24:07.359Z,990.54
2016-05-26T07:25:07.362Z,990.53
2016-05-26T07:26:07.364Z,990.55
2016-05-26T07:27:07.367Z,990.56
2016-05-26T07:28:07.386Z,990.54
2016-05-26T07:29:07.388Z,990.52
2016-05-26T07:30:07.391Z,990.53
2016-05-26T07:31:07.408Z,990.5
2016-05-26T07:32:07.427Z,990.51
2016-05-26T07:33:07.867Z,990.47
2016-05-26T07:34:07.448Z,990.52
2016-05-26T07:35:07.450Z,990.51
2016-05-26T07:36:07.453Z,990.5
2016-05-26T07:37:07.471Z,990.47
2016-05-26T07:38:07.489Z,990.49
2016-05-26T07:39:07.517Z,990.47
2016-05-26T07:40:07.560Z,990.45
2016-05-26T07:41:07.588Z,990.44
2016-05-26T07:42:07.630Z,990.48
2016-05-26T07:43:07.649Z,990.47
2016-05-26T07:44:07.677Z,990.51
2016-05-26T07:45:07.704Z,990.47
2016-05-26T07:46:07.715Z,990.5
2016-05-26T07:47:07.727Z,990.43
2016-05-26T07:48:07.751Z,990.45
2016-05-26T07:49:07.756Z,990.44
2016-05-26T07:50:07.779Z,990.46
2016-05-26T07:51:07.785Z,990.41
2016-05-26T07:52:07.791Z,990.37
2016-05-26T07:53:07.811Z,990.36
2016-05-26T07:54:07.831Z,990.32
2016-05-26T07:55:07.834Z,990.31
2016-05-26T07:56:07.839Z,990.32
2016-05-26T07:57:07.859Z,990.33
2016-05-26T07:58:07.862Z,990.31
2016-05-26T07:59:07.879Z,990.31
2016-05-26T08:00:07.883Z,990.27
2016-05-26T08:01:07.902Z,990.28
2016-05-26T08:02:07.904Z,990.35
2016-05-26T08:03:08.236Z,990.28
2016-05-26T08:04:07.926Z,990.29
2016-05-26T08:05:07.944Z,990.31
2016-05-26T08:06:07.947Z,990.3
2016-05-26T08:07:07.966Z,990.31
2016-05-26T08:08:07.983Z,990.24
2016-05-26T08:09:07.985Z,990.3
2016-05-26T08:10:07.989Z,990.28
2016-05-26T08:11:07.992Z,990.27
2016-05-26T08:12:08.010Z,990.32
2016-05-26T08:13:08.029Z,990.32
2016-05-26T08:14:08.031Z,990.29
2016-05-26T08:15:08.049Z,990.28
2016-05-26T08:16:08.052Z,990.25
2016-05-26T08:17:08.055Z,990.26
2016-05-26T08:18:08.073Z,990.24
2016-05-26T08:19:08.091Z,990.28
2016-05-26T08:20:08.095Z,990.25
2016-05-26T08:21:08.097Z,990.22
2016-05-26T08:22:08.131Z,990.22
2016-05-26T08:23:08.133Z,990.18
2016-05-26T08:24:08.151Z,990.17
2016-05-26T08:25:08.139Z,990.18
2016-05-26T08:26:08.156Z,990.14
2016-05-26T08:27:08.159Z,990.11
2016-05-26T08:28:08.178Z,990.07
2016-05-26T08:29:08.180Z,990.07
2016-05-26T08:30:08.183Z,990.09
2016-05-26T08:31:08.202Z,990.08
2016-05-26T08:32:08.844Z,990.06
2016-05-26T08:33:08.222Z,990.04
2016-05-26T08:34:08.242Z,989.97
2016-05-26T08:35:08.243Z,989.98
2016-05-26T08:36:08.262Z,989.99
2016-05-26T08:37:08.265Z,990.01
2016-05-26T08:38:08.283Z,989.99
2016-05-26T08:39:08.286Z,989.99
2016-05-26T08:40:08.305Z,990
2016-05-26T08:41:08.321Z,989.96
2016-05-26T08:42:08.310Z,989.99
2016-05-26T08:43:08.328Z,990
2016-05-26T08:44:08.346Z,989.98
2016-05-26T08:45:08.349Z,989.98
2016-05-26T08:46:08.367Z,990
2016-05-26T08:47:08.370Z,989.97
2016-05-26T08:48:08.388Z,990.01
2016-05-26T08:49:08.391Z,990.05
2016-05-26T08:50:08.393Z,990.08
2016-05-26T08:51:08.412Z,990.12
2016-05-26T08:52:08.415Z,990.14
2016-05-26T08:53:08.433Z,990.14
2016-05-26T08:54:08.436Z,990.18
2016-05-26T08:55:08.438Z,990.16
2016-05-26T08:56:08.456Z,990.14
2016-05-26T08:57:08.459Z,990.12
2016-05-26T08:58:08.478Z,990.17
2016-05-26T08:59:08.480Z,990.12
2016-05-26T09:00:08.483Z,990.1
2016-05-26T09:01:08.501Z,990.13
2016-05-26T09:02:08.503Z,990.08
2016-05-26T09:03:08.506Z,990.07
2016-05-26T09:04:08.525Z,990.06
2016-05-26T09:05:08.543Z,990.06
2016-05-26T09:06:08.546Z,990.02
2016-05-26T09:07:08.549Z,990.01
2016-05-26T09:08:08.551Z,990.01
2016-05-26T09:09:08.569Z,990.08
2016-05-26T09:10:08.572Z,990.02
2016-05-26T09:11:08.652Z,990.02
2016-05-26T09:12:08.577Z,989.95
2016-05-26T09:13:08.596Z,989.97
2016-05-26T09:14:08.598Z,989.92
2016-05-26T09:15:08.601Z,989.89
2016-05-26T09:16:08.682Z,989.92
2016-05-26T09:17:08.623Z,989.89
2016-05-26T09:18:09.343Z,989.9
2016-05-26T09:19:08.628Z,989.9
2016-05-26T09:20:08.646Z,989.92
2016-05-26T09:21:08.648Z,989.88
2016-05-26T09:22:08.651Z,989.89
2016-05-26T09:23:08.654Z,989.93
2016-05-26T09:24:08.673Z,989.94
2016-05-26T09:25:08.676Z,989.9
2016-05-26T09:26:08.677Z,989.91
2016-05-26T09:27:08.681Z,989.89
2016-05-26T09:28:08.698Z,989.88
2016-05-26T09:29:08.701Z,989.89
2016-05-26T09:30:08.704Z,989.9
2016-05-26T09:31:08.723Z,989.91
2016-05-26T09:32:08.725Z,989.95
2016-05-26T09:33:08.822Z,989.93
2016-05-26T09:34:08.856Z,989.9
2016-05-26T09:35:08.733Z,989.91
2016-05-26T09:36:08.799Z,989.89
2016-05-26T09:37:08.754Z,989.9
2016-05-26T09:38:08.757Z,989.9
2016-05-26T09:39:08.760Z,989.89
2016-05-26T09:40:08.763Z,989.86
2016-05-26T09:41:08.765Z,989.86
2016-05-26T09:42:08.799Z,989.83
2016-05-26T09:43:08.786Z,989.83
2016-05-26T09:44:08.788Z,989.79
2016-05-26T09:45:08.807Z,989.8
2016-05-26T09:46:08.826Z,989.8
2016-05-26T09:47:08.813Z,989.81
2016-05-26T09:48:08.815Z,989.81
2016-05-26T09:49:08.834Z,989.79
2016-05-26T09:50:08.837Z,989.77
2016-05-26T09:51:08.870Z,989.8
2016-05-26T09:52:08.842Z,989.81
2016-05-26T09:53:08.859Z,989.84
2016-05-26T09:54:08.863Z,989.81
2016-05-26T09:55:08.865Z,989.82
2016-05-26T09:56:08.868Z,989.8
2016-05-26T09:57:08.870Z,989.78
2016-05-26T09:58:08.889Z,989.78
2016-05-26T09:59:08.892Z,989.84
2016-05-26T10:00:08.895Z,989.83
2016-05-26T10:01:08.897Z,989.78
2016-05-26T10:02:08.900Z,989.77
2016-05-26T10:03:08.917Z,989.78
2016-05-26T10:04:08.920Z,989.74
2016-05-26T10:05:08.939Z,989.75
2016-05-26T10:06:08.942Z,989.73
2016-05-26T10:07:08.928Z,989.72
2016-05-26T10:08:08.947Z,989.71
2016-05-26T10:09:08.950Z,989.66
2016-05-26T10:10:08.952Z,989.68
2016-05-26T10:11:09.002Z,989.69
2016-05-26T10:12:08.974Z,989.66
2016-05-26T10:13:08.977Z,989.63
2016-05-26T10:14:08.979Z,989.65
2016-05-26T10:15:08.997Z,989.64
2016-05-26T10:16:09.000Z,989.59
2016-05-26T10:17:09.002Z,989.62
2016-05-26T10:18:09.411Z,989.6
2016-05-26T10:19:09.196Z,989.58
2016-05-26T10:20:09.010Z,989.56
2016-05-26T10:21:09.029Z,989.61
2016-05-26T10:22:09.031Z,989.6
2016-05-26T10:23:09.034Z,989.62
2016-05-26T10:24:09.053Z,989.65
2016-05-26T10:25:09.056Z,989.62
2016-05-26T10:26:09.073Z,989.62
2016-05-26T10:27:09.061Z,989.61
2016-05-26T10:28:09.079Z,989.65
2016-05-26T10:29:09.082Z,989.64
2016-05-26T10:30:09.084Z,989.63
2016-05-26T10:31:09.165Z,989.68
2016-05-26T10:32:09.089Z,989.63
2016-05-26T10:33:09.170Z,989.61
2016-05-26T10:34:09.111Z,989.61
2016-05-26T10:35:09.113Z,989.58
2016-05-26T10:36:09.178Z,989.56
2016-05-26T10:37:09.133Z,989.54
2016-05-26T10:38:09.137Z,989.49
2016-05-26T10:39:09.155Z,989.53
2016-05-26T10:40:09.142Z,989.49
2016-05-26T10:41:09.145Z,989.47
2016-05-26T10:42:09.163Z,989.46
2016-05-26T10:43:09.166Z,989.43
2016-05-26T10:44:09.168Z,989.44
2016-05-26T10:45:09.171Z,989.38
2016-05-26T10:46:09.238Z,989.4
2016-05-26T10:47:09.193Z,989.38
2016-05-26T10:48:09.196Z,989.38
2016-05-26T10:49:09.213Z,989.37
2016-05-26T10:50:09.216Z,989.4
2016-05-26T10:51:09.218Z,989.36
2016-05-26T10:52:09.238Z,989.36
2016-05-26T10:53:09.240Z,989.38
2016-05-26T10:54:09.243Z,989.35
2016-05-26T10:55:09.245Z,989.37
2016-05-26T10:56:09.248Z,989.35
2016-05-26T10:57:09.250Z,989.35
2016-05-26T10:58:09.269Z,989.33
2016-05-26T10:59:09.287Z,989.32
2016-05-26T11:00:09.275Z,989.3
2016-05-26T11:01:09.292Z,989.33
2016-05-26T11:02:09.295Z,989.29
2016-05-26T11:03:09.298Z,989.32
2016-05-26T11:04:09.300Z,989.36
2016-05-26T11:05:09.303Z,989.37
2016-05-26T11:06:09.322Z,989.36
2016-05-26T11:07:09.325Z,989.38
2016-05-26T11:08:09.327Z,989.34
2016-05-26T11:09:09.330Z,989.34
2016-05-26T11:10:09.333Z,989.33
2016-05-26T11:11:09.350Z,989.33
2016-05-26T11:12:09.353Z,989.27
2016-05-26T11:13:09.356Z,989.31
2016-05-26T11:14:09.358Z,989.3
2016-05-26T11:15:09.377Z,989.3
2016-05-26T11:16:09.410Z,989.27
2016-05-26T11:17:09.382Z,989.29
2016-05-26T11:18:09.401Z,989.3
2016-05-26T11:19:09.404Z,989.29
2016-05-26T11:20:09.407Z,989.28
2016-05-26T11:21:09.409Z,989.28
2016-05-26T11:22:09.412Z,989.31
2016-05-26T11:23:09.430Z,989.24
2016-05-26T11:24:09.432Z,989.25
2016-05-26T11:25:09.435Z,989.22
2016-05-26T11:26:09.454Z,989.23
2016-05-26T11:27:09.456Z,989.23
2016-05-26T11:28:09.459Z,989.27
2016-05-26T11:29:09.461Z,989.28
2016-05-26T11:30:09.481Z,989.23
2016-05-26T11:31:09.483Z,989.24
2016-05-26T11:32:09.486Z,989.26
2016-05-26T11:33:09.488Z,989.25
2016-05-26T11:34:09.506Z,989.25
2016-05-26T11:35:09.509Z,989.24
2016-05-26T11:36:09.512Z,989.22
2016-05-26T11:37:09.514Z,989.25
2016-05-26T11:38:09.533Z,989.2
2016-05-26T11:39:09.536Z,989.2
2016-05-26T11:40:09.538Z,989.22
2016-05-26T11:41:09.556Z,989.22
2016-05-26T11:42:09.559Z,989.17
2016-05-26T11:43:09.562Z,989.18
2016-05-26T11:44:09.564Z,989.18
2016-05-26T11:45:09.567Z,989.18
2016-05-26T11:46:09.585Z,989.13
2016-05-26T11:47:09.588Z,989.15
2016-05-26T11:48:09.591Z,989.12
2016-05-26T11:49:09.610Z,989.08
2016-05-26T11:50:09.643Z,989.1
2016-05-26T11:51:09.615Z,989.07
2016-05-26T11:52:09.618Z,989.07
2016-05-26T11:53:09.636Z,989.06
2016-05-26T11:54:09.638Z,989.09
2016-05-26T11:55:09.641Z,989.04
2016-05-26T11:56:09.643Z,989.07
2016-05-26T11:57:09.663Z,989.07
2016-05-26T11:58:09.665Z,989.05
2016-05-26T11:59:09.667Z,988.98
2016-05-26T12:00:09.687Z,989.04
2016-05-26T12:01:09.689Z,988.97
2016-05-26T12:02:09.691Z,988.98
2016-05-26T12:03:09.709Z,988.95
2016-05-26T12:04:09.712Z,988.97
2016-05-26T12:05:09.715Z,988.99
2016-05-26T12:06:09.733Z,988.96
2016-05-26T12:07:09.720Z,988.97
2016-05-26T12:08:09.739Z,989.1
2016-05-26T12:09:09.741Z,989
2016-05-26T12:10:09.760Z,989
2016-05-26T12:11:09.794Z,988.92
2016-05-26T12:12:09.764Z,988.97
2016-05-26T12:13:09.767Z,988.95
2016-05-26T12:14:09.770Z,988.94
2016-05-26T12:15:09.789Z,988.92
2016-05-26T12:16:09.791Z,988.98
2016-05-26T12:17:09.794Z,989.02
2016-05-26T12:18:09.796Z,989.04
2016-05-26T12:19:09.815Z,988.94
2016-05-26T12:20:09.818Z,988.97
2016-05-26T12:21:09.836Z,989.01
2016-05-26T12:22:09.838Z,989.03
2016-05-26T12:23:09.841Z,989.06
2016-05-26T12:24:09.843Z,988.99
2016-05-26T12:25:09.863Z,989.06
2016-05-26T12:26:09.865Z,989.06
2016-05-26T12:27:09.867Z,989.01
2016-05-26T12:28:09.871Z,989.05
2016-05-26T12:29:09.873Z,989.03
2016-05-26T12:30:09.892Z,989.05
2016-05-26T12:31:09.895Z,989.08
2016-05-26T12:32:09.897Z,989.12